sensor_id;sensor_type;location;lat;lon;timestamp;pressure;altitude;pressure_sealevel;temperature;humidity
6343;BME280;3204;42.698;23.298;2022-07-19T00:00:03;95615.94;;;20.87;56.64
6343;BME280;3204;42.698;23.298;2022-07-19T00:02:31;95611.47;;;20.82;56.86
6343;BME280;3204;42.698;23.298;2022-07-19T00:04:56;95611.06;;;20.80;57.19
6343;BME280;3204;42.698;23.298;2022-07-19T00:07:22;95606.50;;;20.88;56.95
6343;BME280;3204;42.698;23.298;2022-07-19T00:09:47;95604.09;;;20.86;57.52
6343;BME280;3204;42.698;23.298;2022-07-19T00:12:13;95609.34;;;20.76;57.53
6343;BME280;3204;42.698;23.298;2022-07-19T00:14:39;95613.63;;;20.58;58.46
6343;BME280;3204;42.698;23.298;2022-07-19T00:17:05;95616.91;;;20.48;58.85
6343;BME280;3204;42.698;23.298;2022-07-19T00:19:30;95611.84;;;20.34;59.39
6343;BME280;3204;42.698;23.298;2022-07-19T00:21:56;95605.97;;;20.36;59.67
6343;BME280;3204;42.698;23.298;2022-07-19T00:24:22;95601.84;;;20.30;59.76
6343;BME280;3204;42.698;23.298;2022-07-19T00:26:47;95605.88;;;20.32;60.27
6343;BME280;3204;42.698;23.298;2022-07-19T00:29:13;95602.13;;;20.25;60.21
6343;BME280;3204;42.698;23.298;2022-07-19T00:31:38;95606.31;;;20.19;60.56
6343;BME280;3204;42.698;23.298;2022-07-19T00:34:04;95609.88;;;20.19;60.76
6343;BME280;3204;42.698;23.298;2022-07-19T00:36:29;95610.00;;;20.11;60.93
6343;BME280;3204;42.698;23.298;2022-07-19T00:38:55;95607.81;;;20.16;60.98
6343;BME280;3204;42.698;23.298;2022-07-19T00:41:21;95609.78;;;20.04;61.28
6343;BME280;3204;42.698;23.298;2022-07-19T00:43:46;95599.22;;;20.06;61.19
6343;BME280;3204;42.698;23.298;2022-07-19T00:46:17;95612.88;;;20.14;61.25
6343;BME280;3204;42.698;23.298;2022-07-19T00:48:42;95607.38;;;20.14;61.21
6343;BME280;3204;42.698;23.298;2022-07-19T00:51:10;95605.88;;;20.05;61.62
6343;BME280;3204;42.698;23.298;2022-07-19T00:53:37;95604.47;;;19.95;61.87
6343;BME280;3204;42.698;23.298;2022-07-19T00:56:05;95609.63;;;19.97;61.89
6343;BME280;3204;42.698;23.298;2022-07-19T00:58:31;95608.50;;;19.86;61.74
6343;BME280;3204;42.698;23.298;2022-07-19T01:00:57;95605.16;;;19.92;62.33
6343;BME280;3204;42.698;23.298;2022-07-19T01:03:24;95606.22;;;19.88;62.24
6343;BME280;3204;42.698;23.298;2022-07-19T01:05:50;95603.72;;;19.83;62.58
6343;BME280;3204;42.698;23.298;2022-07-19T01:08:17;95596.72;;;19.85;62.39
6343;BME280;3204;42.698;23.298;2022-07-19T01:10:43;95601.31;;;19.81;62.65
6343;BME280;3204;42.698;23.298;2022-07-19T01:13:09;95599.94;;;19.75;62.84
6343;BME280;3204;42.698;23.298;2022-07-19T01:15:37;95596.25;;;19.83;62.76
6343;BME280;3204;42.698;23.298;2022-07-19T01:18:04;95595.97;;;19.88;62.59
6343;BME280;3204;42.698;23.298;2022-07-19T01:20:30;95591.06;;;19.82;62.95
6343;BME280;3204;42.698;23.298;2022-07-19T01:22:55;95593.78;;;19.94;62.32
6343;BME280;3204;42.698;23.298;2022-07-19T01:25:23;95593.31;;;19.92;62.58
6343;BME280;3204;42.698;23.298;2022-07-19T01:27:48;95588.78;;;19.84;62.72
6343;BME280;3204;42.698;23.298;2022-07-19T01:30:20;95595.34;;;19.79;63.15
6343;BME280;3204;42.698;23.298;2022-07-19T01:32:46;95581.78;;;19.86;62.91
6343;BME280;3204;42.698;23.298;2022-07-19T01:35:12;95589.56;;;19.69;63.34
6343;BME280;3204;42.698;23.298;2022-07-19T01:37:39;95587.31;;;19.59;63.87
6343;BME280;3204;42.698;23.298;2022-07-19T01:40:06;95588.56;;;19.61;63.77
6343;BME280;3204;42.698;23.298;2022-07-19T01:42:32;95580.38;;;19.65;63.73
6343;BME280;3204;42.698;23.298;2022-07-19T01:44:58;95587.84;;;19.64;63.62
6343;BME280;3204;42.698;23.298;2022-07-19T01:47:24;95585.09;;;19.64;63.82
6343;BME280;3204;42.698;23.298;2022-07-19T01:49:49;95584.63;;;19.62;63.83
6343;BME280;3204;42.698;23.298;2022-07-19T01:52:16;95589.69;;;19.60;63.78
6343;BME280;3204;42.698;23.298;2022-07-19T01:54:41;95579.16;;;19.50;64.20
6343;BME280;3204;42.698;23.298;2022-07-19T01:57:07;95585.16;;;19.40;64.60
6343;BME280;3204;42.698;23.298;2022-07-19T01:59:35;95582.06;;;19.42;64.77
6343;BME280;3204;42.698;23.298;2022-07-19T02:02:01;95585.63;;;19.42;64.70
6343;BME280;3204;42.698;23.298;2022-07-19T02:04:26;95585.25;;;19.44;64.71
6343;BME280;3204;42.698;23.298;2022-07-19T02:06:52;95584.59;;;19.35;65.12
6343;BME280;3204;42.698;23.298;2022-07-19T02:09:17;95584.97;;;19.33;65.16
6343;BME280;3204;42.698;23.298;2022-07-19T02:11:43;95586.56;;;19.34;65.10
6343;BME280;3204;42.698;23.298;2022-07-19T02:14:09;95595.25;;;19.36;65.00
6343;BME280;3204;42.698;23.298;2022-07-19T02:16:36;95598.97;;;19.28;65.29
6343;BME280;3204;42.698;23.298;2022-07-19T02:19:02;95589.22;;;19.19;65.68
6343;BME280;3204;42.698;23.298;2022-07-19T02:21:28;95595.06;;;19.17;65.61
6343;BME280;3204;42.698;23.298;2022-07-19T02:23:54;95592.78;;;19.19;65.59
6343;BME280;3204;42.698;23.298;2022-07-19T02:26:20;95587.03;;;19.12;65.70
6343;BME280;3204;42.698;23.298;2022-07-19T02:28:45;95592.88;;;19.11;66.05
6343;BME280;3204;42.698;23.298;2022-07-19T02:31:11;95594.03;;;19.10;65.95
6343;BME280;3204;42.698;23.298;2022-07-19T02:33:37;95596.44;;;19.11;66.06
6343;BME280;3204;42.698;23.298;2022-07-19T02:36:02;95592.69;;;19.04;65.82
6343;BME280;3204;42.698;23.298;2022-07-19T02:38:29;95604.34;;;19.01;66.27
6343;BME280;3204;42.698;23.298;2022-07-19T02:40:55;95605.38;;;19.08;66.05
6343;BME280;3204;42.698;23.298;2022-07-19T02:43:20;95601.50;;;19.09;66.11
6343;BME280;3204;42.698;23.298;2022-07-19T02:45:46;95606.53;;;19.07;65.94
6343;BME280;3204;42.698;23.298;2022-07-19T02:48:11;95614.44;;;18.97;66.33
6343;BME280;3204;42.698;23.298;2022-07-19T02:50:37;95609.63;;;19.06;65.99
6343;BME280;3204;42.698;23.298;2022-07-19T02:53:02;95610.00;;;19.04;66.17
6343;BME280;3204;42.698;23.298;2022-07-19T02:55:28;95619.94;;;18.97;66.31
6343;BME280;3204;42.698;23.298;2022-07-19T02:57:54;95615.59;;;18.96;66.39
6343;BME280;3204;42.698;23.298;2022-07-19T03:00:20;95606.56;;;18.83;66.78
6343;BME280;3204;42.698;23.298;2022-07-19T03:02:45;95623.63;;;18.77;67.02
6343;BME280;3204;42.698;23.298;2022-07-19T03:05:11;95608.38;;;18.79;66.95
6343;BME280;3204;42.698;23.298;2022-07-19T03:07:37;95621.78;;;18.81;66.91
6343;BME280;3204;42.698;23.298;2022-07-19T03:10:03;95615.47;;;18.80;66.76
6343;BME280;3204;42.698;23.298;2022-07-19T03:12:29;95617.22;;;18.85;66.77
6343;BME280;3204;42.698;23.298;2022-07-19T03:14:54;95617.91;;;18.82;66.78
6343;BME280;3204;42.698;23.298;2022-07-19T03:17:20;95614.81;;;18.83;66.85
6343;BME280;3204;42.698;23.298;2022-07-19T03:19:45;95606.09;;;18.69;67.07
6343;BME280;3204;42.698;23.298;2022-07-19T03:22:11;95619.72;;;18.78;66.91
6343;BME280;3204;42.698;23.298;2022-07-19T03:24:37;95611.16;;;18.67;67.38
6343;BME280;3204;42.698;23.298;2022-07-19T03:27:03;95619.84;;;18.69;67.51
6343;BME280;3204;42.698;23.298;2022-07-19T03:29:28;95618.69;;;18.70;67.53
6343;BME280;3204;42.698;23.298;2022-07-19T03:31:54;95624.78;;;18.76;67.06
6343;BME280;3204;42.698;23.298;2022-07-19T03:34:20;95619.50;;;18.71;67.34
6343;BME280;3204;42.698;23.298;2022-07-19T03:36:45;95635.44;;;18.77;67.06
6343;BME280;3204;42.698;23.298;2022-07-19T03:39:11;95642.16;;;18.68;67.42
6343;BME280;3204;42.698;23.298;2022-07-19T03:41:37;95637.16;;;18.70;66.94
6343;BME280;3204;42.698;23.298;2022-07-19T03:44:02;95641.72;;;18.66;67.50
6343;BME280;3204;42.698;23.298;2022-07-19T03:46:28;95642.06;;;18.52;67.97
6343;BME280;3204;42.698;23.298;2022-07-19T03:48:55;95644.34;;;18.50;68.13
6343;BME280;3204;42.698;23.298;2022-07-19T03:51:21;95637.25;;;18.49;68.39
6343;BME280;3204;42.698;23.298;2022-07-19T03:53:47;95642.41;;;18.63;67.92
6343;BME280;3204;42.698;23.298;2022-07-19T03:56:13;95644.81;;;18.64;67.88
6343;BME280;3204;42.698;23.298;2022-07-19T03:58:39;95647.31;;;18.69;67.52
6343;BME280;3204;42.698;23.298;2022-07-19T04:01:04;95647.09;;;18.74;67.41
6343;BME280;3204;42.698;23.298;2022-07-19T04:03:36;95639.88;;;18.58;67.45
6343;BME280;3204;42.698;23.298;2022-07-19T04:06:01;95646.41;;;18.53;68.01
6343;BME280;3204;42.698;23.298;2022-07-19T04:08:26;95658.22;;;18.66;67.60
6343;BME280;3204;42.698;23.298;2022-07-19T04:10:52;95646.66;;;18.72;67.43
6343;BME280;3204;42.698;23.298;2022-07-19T04:13:18;95653.53;;;18.66;67.68
6343;BME280;3204;42.698;23.298;2022-07-19T04:15:43;95648.94;;;18.70;67.93
6343;BME280;3204;42.698;23.298;2022-07-19T04:18:09;95661.88;;;18.82;67.59
6343;BME280;3204;42.698;23.298;2022-07-19T04:20:34;95659.81;;;18.91;67.11
6343;BME280;3204;42.698;23.298;2022-07-19T04:23:00;95653.31;;;18.95;67.00
6343;BME280;3204;42.698;23.298;2022-07-19T04:25:25;95649.41;;;18.96;67.08
6343;BME280;3204;42.698;23.298;2022-07-19T04:27:51;95654.53;;;19.10;66.92
6343;BME280;3204;42.698;23.298;2022-07-19T04:30:16;95655.22;;;19.19;66.96
6343;BME280;3204;42.698;23.298;2022-07-19T04:32:42;95648.94;;;19.30;66.62
6343;BME280;3204;42.698;23.298;2022-07-19T04:35:08;95651.44;;;19.47;65.62
6343;BME280;3204;42.698;23.298;2022-07-19T04:37:34;95654.72;;;19.53;65.84
6343;BME280;3204;42.698;23.298;2022-07-19T04:39:59;95666.16;;;19.67;65.35
6343;BME280;3204;42.698;23.298;2022-07-19T04:42:25;95660.72;;;19.82;65.15
6343;BME280;3204;42.698;23.298;2022-07-19T04:44:51;95655.38;;;20.01;64.37
6343;BME280;3204;42.698;23.298;2022-07-19T04:47:16;95659.25;;;20.12;63.74
6343;BME280;3204;42.698;23.298;2022-07-19T04:49:41;95660.06;;;20.13;63.63
6343;BME280;3204;42.698;23.298;2022-07-19T04:52:07;95667.91;;;19.99;63.69
6343;BME280;3204;42.698;23.298;2022-07-19T04:54:32;95668.00;;;20.02;63.80
6343;BME280;3204;42.698;23.298;2022-07-19T04:56:58;95663.63;;;20.13;64.05
6343;BME280;3204;42.698;23.298;2022-07-19T04:59:23;95662.81;;;20.13;63.22
6343;BME280;3204;42.698;23.298;2022-07-19T05:01:49;95664.00;;;20.27;63.33
6343;BME280;3204;42.698;23.298;2022-07-19T05:04:14;95664.38;;;20.41;62.74
6343;BME280;3204;42.698;23.298;2022-07-19T05:06:40;95666.63;;;20.51;61.88
6343;BME280;3204;42.698;23.298;2022-07-19T05:09:05;95668.94;;;20.49;62.05
6343;BME280;3204;42.698;23.298;2022-07-19T05:11:31;95660.97;;;20.75;61.50
6343;BME280;3204;42.698;23.298;2022-07-19T05:13:56;95658.97;;;20.76;61.88
6343;BME280;3204;42.698;23.298;2022-07-19T05:16:21;95655.25;;;20.84;61.10
6343;BME280;3204;42.698;23.298;2022-07-19T05:18:47;95657.44;;;20.90;60.35
6343;BME280;3204;42.698;23.298;2022-07-19T05:21:12;95660.19;;;20.90;60.85
6343;BME280;3204;42.698;23.298;2022-07-19T05:23:40;95661.09;;;20.94;60.21
6343;BME280;3204;42.698;23.298;2022-07-19T05:26:06;95659.63;;;21.00;60.13
6343;BME280;3204;42.698;23.298;2022-07-19T05:28:32;95669.44;;;21.13;59.95
6343;BME280;3204;42.698;23.298;2022-07-19T05:30:57;95671.56;;;21.04;59.93
6343;BME280;3204;42.698;23.298;2022-07-19T05:33:23;95660.88;;;21.03;60.17
6343;BME280;3204;42.698;23.298;2022-07-19T05:35:48;95673.25;;;21.09;59.69
6343;BME280;3204;42.698;23.298;2022-07-19T05:38:14;95670.13;;;21.10;59.92
6343;BME280;3204;42.698;23.298;2022-07-19T05:40:39;95676.88;;;21.13;59.60
6343;BME280;3204;42.698;23.298;2022-07-19T05:43:05;95672.25;;;21.17;59.50
6343;BME280;3204;42.698;23.298;2022-07-19T05:45:30;95669.91;;;21.34;59.29
6343;BME280;3204;42.698;23.298;2022-07-19T05:47:56;95663.41;;;21.42;58.85
6343;BME280;3204;42.698;23.298;2022-07-19T05:50:21;95670.31;;;21.52;58.72
6343;BME280;3204;42.698;23.298;2022-07-19T05:52:47;95668.22;;;21.64;58.69
6343;BME280;3204;42.698;23.298;2022-07-19T05:55:12;95662.16;;;21.74;58.40
6343;BME280;3204;42.698;23.298;2022-07-19T05:57:38;95661.97;;;21.83;57.74
6343;BME280;3204;42.698;23.298;2022-07-19T06:00:04;95664.75;;;21.83;57.64
6343;BME280;3204;42.698;23.298;2022-07-19T06:02:30;95664.81;;;21.86;57.65
6343;BME280;3204;42.698;23.298;2022-07-19T06:04:55;95661.81;;;21.76;57.62
6343;BME280;3204;42.698;23.298;2022-07-19T06:07:21;95670.31;;;21.86;57.41
6343;BME280;3204;42.698;23.298;2022-07-19T06:09:46;95659.41;;;21.93;57.31
6343;BME280;3204;42.698;23.298;2022-07-19T06:12:12;95658.41;;;22.01;56.82
6343;BME280;3204;42.698;23.298;2022-07-19T06:14:37;95659.28;;;22.05;57.04
6343;BME280;3204;42.698;23.298;2022-07-19T06:17:03;95659.16;;;22.17;56.40
6343;BME280;3204;42.698;23.298;2022-07-19T06:19:28;95660.94;;;22.29;56.21
6343;BME280;3204;42.698;23.298;2022-07-19T06:21:54;95660.16;;;22.28;55.88
6343;BME280;3204;42.698;23.298;2022-07-19T06:24:19;95656.50;;;22.24;56.10
6343;BME280;3204;42.698;23.298;2022-07-19T06:26:45;95660.94;;;22.29;55.81
6343;BME280;3204;42.698;23.298;2022-07-19T06:29:10;95654.06;;;22.42;55.83
6343;BME280;3204;42.698;23.298;2022-07-19T06:31:36;95662.97;;;22.73;55.39
6343;BME280;3204;42.698;23.298;2022-07-19T06:34:02;95656.34;;;23.00;54.39
6343;BME280;3204;42.698;23.298;2022-07-19T06:36:27;95657.53;;;23.22;53.70
6343;BME280;3204;42.698;23.298;2022-07-19T06:38:53;95644.31;;;23.15;53.78
6343;BME280;3204;42.698;23.298;2022-07-19T06:41:18;95645.06;;;23.35;53.46
6343;BME280;3204;42.698;23.298;2022-07-19T06:43:44;95641.75;;;23.52;52.36
6343;BME280;3204;42.698;23.298;2022-07-19T06:46:10;95646.78;;;23.72;52.09
6343;BME280;3204;42.698;23.298;2022-07-19T06:48:36;95644.78;;;23.69;51.68
6343;BME280;3204;42.698;23.298;2022-07-19T06:51:04;95654.78;;;23.77;51.38
6343;BME280;3204;42.698;23.298;2022-07-19T06:53:30;95645.34;;;23.82;51.18
6343;BME280;3204;42.698;23.298;2022-07-19T06:55:55;95644.47;;;24.04;50.52
6343;BME280;3204;42.698;23.298;2022-07-19T06:58:21;95643.13;;;23.65;50.73
6343;BME280;3204;42.698;23.298;2022-07-19T07:00:46;95645.56;;;23.70;50.75
6343;BME280;3204;42.698;23.298;2022-07-19T07:03:14;95640.47;;;24.01;50.19
6343;BME280;3204;42.698;23.298;2022-07-19T07:05:40;95643.66;;;24.33;49.73
6343;BME280;3204;42.698;23.298;2022-07-19T07:08:06;95647.00;;;24.49;48.76
6343;BME280;3204;42.698;23.298;2022-07-19T07:10:32;95640.06;;;24.65;48.47
6343;BME280;3204;42.698;23.298;2022-07-19T07:12:57;95637.84;;;24.85;47.63
6343;BME280;3204;42.698;23.298;2022-07-19T07:15:23;95635.63;;;24.97;47.68
6343;BME280;3204;42.698;23.298;2022-07-19T07:17:48;95642.38;;;25.00;48.53
6343;BME280;3204;42.698;23.298;2022-07-19T07:20:14;95639.75;;;25.21;46.45
6343;BME280;3204;42.698;23.298;2022-07-19T07:22:39;95646.19;;;25.28;44.76
6343;BME280;3204;42.698;23.298;2022-07-19T07:25:05;95636.41;;;25.01;44.34
6343;BME280;3204;42.698;23.298;2022-07-19T07:27:31;95636.88;;;25.10;44.42
6343;BME280;3204;42.698;23.298;2022-07-19T07:29:56;95643.88;;;25.37;44.21
6343;BME280;3204;42.698;23.298;2022-07-19T07:32:22;95639.16;;;25.41;43.82
6343;BME280;3204;42.698;23.298;2022-07-19T07:34:48;95630.13;;;25.58;43.98
6343;BME280;3204;42.698;23.298;2022-07-19T07:37:13;95637.84;;;25.86;43.03
6343;BME280;3204;42.698;23.298;2022-07-19T07:39:39;95632.75;;;25.95;41.97
6343;BME280;3204;42.698;23.298;2022-07-19T07:42:05;95632.03;;;26.15;41.12
6343;BME280;3204;42.698;23.298;2022-07-19T07:44:31;95629.25;;;26.15;41.50
6343;BME280;3204;42.698;23.298;2022-07-19T07:46:56;95640.69;;;25.93;39.53
6343;BME280;3204;42.698;23.298;2022-07-19T07:49:22;95634.41;;;26.10;39.05
6343;BME280;3204;42.698;23.298;2022-07-19T07:51:48;95626.72;;;25.82;39.35
6343;BME280;3204;42.698;23.298;2022-07-19T07:54:13;95636.00;;;26.14;39.58
6343;BME280;3204;42.698;23.298;2022-07-19T07:56:39;95622.25;;;26.53;38.94
6343;BME280;3204;42.698;23.298;2022-07-19T07:59:04;95625.47;;;26.65;38.84
6343;BME280;3204;42.698;23.298;2022-07-19T08:01:30;95628.53;;;26.25;38.94
6343;BME280;3204;42.698;23.298;2022-07-19T08:03:56;95629.38;;;26.47;37.86
6343;BME280;3204;42.698;23.298;2022-07-19T08:06:21;95615.44;;;26.43;38.05
6343;BME280;3204;42.698;23.298;2022-07-19T08:08:47;95625.88;;;26.64;37.78
6343;BME280;3204;42.698;23.298;2022-07-19T08:11:12;95622.28;;;26.60;37.09
6343;BME280;3204;42.698;23.298;2022-07-19T08:13:38;95627.88;;;26.88;35.43
6343;BME280;3204;42.698;23.298;2022-07-19T08:16:03;95628.31;;;27.11;35.55
6343;BME280;3204;42.698;23.298;2022-07-19T08:18:29;95631.91;;;27.11;35.24
6343;BME280;3204;42.698;23.298;2022-07-19T08:20:54;95624.75;;;27.49;34.91
6343;BME280;3204;42.698;23.298;2022-07-19T08:23:20;95626.69;;;27.73;34.93
6343;BME280;3204;42.698;23.298;2022-07-19T08:25:45;95627.06;;;27.96;34.42
6343;BME280;3204;42.698;23.298;2022-07-19T08:28:11;95627.00;;;28.17;33.99
6343;BME280;3204;42.698;23.298;2022-07-19T08:30:36;95623.75;;;28.29;33.44
6343;BME280;3204;42.698;23.298;2022-07-19T08:33:02;95623.25;;;28.52;32.47
6343;BME280;3204;42.698;23.298;2022-07-19T08:35:32;95619.09;;;28.81;32.65
6343;BME280;3204;42.698;23.298;2022-07-19T08:37:57;95620.28;;;28.87;31.76
6343;BME280;3204;42.698;23.298;2022-07-19T08:40:23;95614.84;;;28.59;31.76
6343;BME280;3204;42.698;23.298;2022-07-19T08:42:50;95608.81;;;28.67;31.83
6343;BME280;3204;42.698;23.298;2022-07-19T08:45:17;95603.66;;;28.62;31.84
6343;BME280;3204;42.698;23.298;2022-07-19T08:47:43;95609.97;;;28.77;31.94
6343;BME280;3204;42.698;23.298;2022-07-19T08:50:09;95604.84;;;28.65;32.38
6343;BME280;3204;42.698;23.298;2022-07-19T08:52:36;95616.66;;;28.07;33.25
6343;BME280;3204;42.698;23.298;2022-07-19T08:55:04;95610.25;;;28.14;33.24
6343;BME280;3204;42.698;23.298;2022-07-19T08:57:30;95605.00;;;28.33;33.81
6343;BME280;3204;42.698;23.298;2022-07-19T09:00:14;95607.25;;;28.59;33.46
6343;BME280;3204;42.698;23.298;2022-07-19T09:02:39;95608.91;;;28.50;33.01
6343;BME280;3204;42.698;23.298;2022-07-19T09:05:08;95594.97;;;28.50;32.86
6343;BME280;3204;42.698;23.298;2022-07-19T09:07:34;95602.50;;;28.53;33.26
6343;BME280;3204;42.698;23.298;2022-07-19T09:10:20;95603.38;;;28.36;33.28
6343;BME280;3204;42.698;23.298;2022-07-19T09:15:36;95606.16;;;28.46;33.75
6343;BME280;3204;42.698;23.298;2022-07-19T09:20:38;95593.22;;;28.70;32.82
6343;BME280;3204;42.698;23.298;2022-07-19T09:23:04;95594.47;;;28.62;32.49
6343;BME280;3204;42.698;23.298;2022-07-19T09:25:51;95596.53;;;28.51;32.53
6343;BME280;3204;42.698;23.298;2022-07-19T09:28:19;95600.72;;;28.08;33.41
6343;BME280;3204;42.698;23.298;2022-07-19T09:30:47;95590.72;;;28.14;33.86
6343;BME280;3204;42.698;23.298;2022-07-19T09:35:45;95581.59;;;28.82;33.13
6343;BME280;3204;42.698;23.298;2022-07-19T09:38:22;95600.63;;;28.97;32.19
6343;BME280;3204;42.698;23.298;2022-07-19T09:40:50;95583.75;;;29.15;32.04
6343;BME280;3204;42.698;23.298;2022-07-19T09:43:16;95584.19;;;29.10;31.85
6343;BME280;3204;42.698;23.298;2022-07-19T09:45:42;95573.84;;;29.07;32.15
6343;BME280;3204;42.698;23.298;2022-07-19T09:48:08;95578.28;;;29.45;31.67
6343;BME280;3204;42.698;23.298;2022-07-19T09:50:34;95572.28;;;29.43;30.92
6343;BME280;3204;42.698;23.298;2022-07-19T09:53:05;95576.84;;;29.30;31.19
6343;BME280;3204;42.698;23.298;2022-07-19T09:55:31;95578.84;;;29.70;31.39
6343;BME280;3204;42.698;23.298;2022-07-19T09:57:59;95571.25;;;29.70;31.68
6343;BME280;3204;42.698;23.298;2022-07-19T10:00:27;95570.97;;;29.14;31.93
6343;BME280;3204;42.698;23.298;2022-07-19T10:03:00;95581.69;;;28.68;31.95
6343;BME280;3204;42.698;23.298;2022-07-19T10:05:27;95569.38;;;28.58;33.12
6343;BME280;3204;42.698;23.298;2022-07-19T10:07:53;95569.06;;;28.35;33.17
6343;BME280;3204;42.698;23.298;2022-07-19T10:10:21;95568.28;;;28.35;33.21
6343;BME280;3204;42.698;23.298;2022-07-19T10:12:48;95566.88;;;28.71;33.46
6343;BME280;3204;42.698;23.298;2022-07-19T10:15:17;95573.34;;;29.15;32.74
6343;BME280;3204;42.698;23.298;2022-07-19T10:18:21;95568.19;;;29.58;31.80
6343;BME280;3204;42.698;23.298;2022-07-19T10:20:50;95572.19;;;29.53;31.65
6343;BME280;3204;42.698;23.298;2022-07-19T10:23:16;95563.38;;;29.58;31.45
6343;BME280;3204;42.698;23.298;2022-07-19T10:25:50;95572.38;;;29.36;31.35
6343;BME280;3204;42.698;23.298;2022-07-19T10:28:42;95564.06;;;29.29;31.96
6343;BME280;3204;42.698;23.298;2022-07-19T10:31:30;95565.31;;;29.65;31.61
6343;BME280;3204;42.698;23.298;2022-07-19T10:34:01;95556.88;;;29.72;31.05
6343;BME280;3204;42.698;23.298;2022-07-19T10:36:45;95554.25;;;29.51;31.66
6343;BME280;3204;42.698;23.298;2022-07-19T10:42:05;95553.28;;;28.76;32.58
6343;BME280;3204;42.698;23.298;2022-07-19T10:44:31;95551.59;;;28.86;32.54
6343;BME280;3204;42.698;23.298;2022-07-19T10:46:57;95551.31;;;28.77;32.96
6343;BME280;3204;42.698;23.298;2022-07-19T10:49:45;95548.78;;;28.93;32.31
6343;BME280;3204;42.698;23.298;2022-07-19T11:00:29;95531.63;;;28.87;32.53
6343;BME280;3204;42.698;23.298;2022-07-19T11:06:05;95530.75;;;28.97;33.62
6343;BME280;3204;42.698;23.298;2022-07-19T11:11:08;95525.19;;;29.41;31.82
6343;BME280;3204;42.698;23.298;2022-07-19T11:13:35;95528.91;;;29.31;32.80
6343;BME280;3204;42.698;23.298;2022-07-19T11:16:00;95530.66;;;29.15;32.37
6343;BME280;3204;42.698;23.298;2022-07-19T11:18:31;95532.38;;;28.95;32.70
6343;BME280;3204;42.698;23.298;2022-07-19T11:20:58;95526.16;;;28.77;32.98
6343;BME280;3204;42.698;23.298;2022-07-19T11:23:28;95521.91;;;28.58;33.05
6343;BME280;3204;42.698;23.298;2022-07-19T11:26:14;95529.97;;;28.46;33.24
6343;BME280;3204;42.698;23.298;2022-07-19T11:28:42;95517.69;;;28.26;33.51
6343;BME280;3204;42.698;23.298;2022-07-19T11:31:18;95515.34;;;28.21;34.11
6343;BME280;3204;42.698;23.298;2022-07-19T11:33:46;95517.47;;;27.92;34.53
6343;BME280;3204;42.698;23.298;2022-07-19T11:36:13;95525.09;;;27.71;33.72
6343;BME280;3204;42.698;23.298;2022-07-19T11:38:41;95521.13;;;27.68;34.02
6343;BME280;3204;42.698;23.298;2022-07-19T11:41:17;95506.53;;;28.26;33.58
6343;BME280;3204;42.698;23.298;2022-07-19T11:44:04;95503.00;;;28.76;32.73
6343;BME280;3204;42.698;23.298;2022-07-19T11:46:36;95495.72;;;28.86;32.76
6343;BME280;3204;42.698;23.298;2022-07-19T11:49:04;95510.13;;;28.84;32.54
6343;BME280;3204;42.698;23.298;2022-07-19T11:51:30;95508.16;;;28.23;32.42
6343;BME280;3204;42.698;23.298;2022-07-19T11:53:58;95504.53;;;28.26;33.63
6343;BME280;3204;42.698;23.298;2022-07-19T11:56:29;95512.06;;;28.33;32.83
6343;BME280;3204;42.698;23.298;2022-07-19T11:58:58;95501.72;;;28.26;33.48
6343;BME280;3204;42.698;23.298;2022-07-19T12:01:33;95502.59;;;28.20;32.76
6343;BME280;3204;42.698;23.298;2022-07-19T12:06:49;95502.06;;;28.39;33.39
6343;BME280;3204;42.698;23.298;2022-07-19T12:09:20;95497.34;;;28.29;33.09
6343;BME280;3204;42.698;23.298;2022-07-19T12:11:54;95493.09;;;28.07;32.97
6343;BME280;3204;42.698;23.298;2022-07-19T12:14:32;95490.41;;;27.86;33.01
6343;BME280;3204;42.698;23.298;2022-07-19T12:19:37;95489.59;;;27.89;33.59
6343;BME280;3204;42.698;23.298;2022-07-19T12:22:02;95489.94;;;28.01;33.37
6343;BME280;3204;42.698;23.298;2022-07-19T12:24:30;95483.09;;;28.13;32.95
6343;BME280;3204;42.698;23.298;2022-07-19T12:29:36;95480.94;;;28.89;31.92
6343;BME280;3204;42.698;23.298;2022-07-19T12:34:50;95485.25;;;29.41;31.23
6343;BME280;3204;42.698;23.298;2022-07-19T12:37:28;95491.38;;;29.29;30.97
6343;BME280;3204;42.698;23.298;2022-07-19T12:40:06;95483.59;;;29.06;31.42
6343;BME280;3204;42.698;23.298;2022-07-19T12:45:12;95461.03;;;28.32;31.66
6343;BME280;3204;42.698;23.298;2022-07-19T12:47:39;95463.53;;;28.74;32.26
6343;BME280;3204;42.698;23.298;2022-07-19T12:50:05;95463.97;;;29.13;31.21
6343;BME280;3204;42.698;23.298;2022-07-19T12:52:31;95466.88;;;29.03;30.96
6343;BME280;3204;42.698;23.298;2022-07-19T12:54:57;95463.47;;;28.81;31.53
6343;BME280;3204;42.698;23.298;2022-07-19T12:57:22;95468.81;;;29.09;31.36
6343;BME280;3204;42.698;23.298;2022-07-19T12:59:48;95465.91;;;29.20;30.80
6343;BME280;3204;42.698;23.298;2022-07-19T13:02:15;95464.50;;;29.38;31.35
6343;BME280;3204;42.698;23.298;2022-07-19T13:04:43;95460.53;;;29.36;30.51
6343;BME280;3204;42.698;23.298;2022-07-19T13:07:10;95465.09;;;29.19;31.18
6343;BME280;3204;42.698;23.298;2022-07-19T13:09:36;95466.22;;;28.85;30.96
6343;BME280;3204;42.698;23.298;2022-07-19T13:12:04;95456.47;;;28.59;31.35
6343;BME280;3204;42.698;23.298;2022-07-19T13:14:36;95455.56;;;28.69;30.79
6343;BME280;3204;42.698;23.298;2022-07-19T13:17:02;95447.56;;;28.75;31.67
6343;BME280;3204;42.698;23.298;2022-07-19T13:19:28;95452.97;;;28.96;31.06
6343;BME280;3204;42.698;23.298;2022-07-19T13:21:54;95449.56;;;29.18;31.18
6343;BME280;3204;42.698;23.298;2022-07-19T13:24:20;95451.63;;;29.48;30.59
6343;BME280;3204;42.698;23.298;2022-07-19T13:26:45;95448.88;;;29.78;30.13
6343;BME280;3204;42.698;23.298;2022-07-19T13:29:11;95445.94;;;29.18;30.92
6343;BME280;3204;42.698;23.298;2022-07-19T13:31:37;95450.06;;;29.06;30.30
6343;BME280;3204;42.698;23.298;2022-07-19T13:34:03;95445.44;;;29.26;30.22
6343;BME280;3204;42.698;23.298;2022-07-19T13:36:28;95441.72;;;29.40;30.80
6343;BME280;3204;42.698;23.298;2022-07-19T13:38:54;95442.22;;;29.31;30.40
6343;BME280;3204;42.698;23.298;2022-07-19T13:41:19;95428.56;;;29.03;31.19
6343;BME280;3204;42.698;23.298;2022-07-19T13:43:45;95434.25;;;28.86;31.12
6343;BME280;3204;42.698;23.298;2022-07-19T13:46:11;95438.28;;;28.37;31.30